sensor_id;sensor_type;location;lat;lon;timestamp;P1;durP1;ratioP1;P2;durP2;ratioP2
2972;SDS011;1496;51.404;7.232;2023-02-11T00:01:06;44.30;;;24.20;;
2972;SDS011;1496;51.404;7.232;2023-02-11T00:03:38;41.87;;;25.63;;
2972;SDS011;1496;51.404;7.232;2023-02-11T00:06:06;39.57;;;22.93;;
2972;SDS011;1496;51.404;7.232;2023-02-11T00:08:35;47.13;;;25.87;;
2972;SDS011;1496;51.404;7.232;2023-02-11T00:11:03;46.20;;;23.87;;
2972;SDS011;1496;51.404;7.232;2023-02-11T00:13:32;40.50;;;25.10;;
2972;SDS011;1496;51.404;7.232;2023-02-11T00:15:58;49.13;;;26.60;;
2972;SDS011;1496;51.404;7.232;2023-02-11T00:18:24;46.00;;;24.03;;
2972;SDS011;1496;51.404;7.232;2023-02-11T00:20:51;47.00;;;26.30;;
2972;SDS011;1496;51.404;7.232;2023-02-11T00:23:17;45.37;;;24.20;;
2972;SDS011;1496;51.404;7.232;2023-02-11T00:25:45;42.40;;;24.10;;
2972;SDS011;1496;51.404;7.232;2023-02-11T00:28:12;37.70;;;24.80;;
2972;SDS011;1496;51.404;7.232;2023-02-11T00:30:39;41.23;;;22.13;;
2972;SDS011;1496;51.404;7.232;2023-02-11T00:33:07;42.17;;;24.83;;
2972;SDS011;1496;51.404;7.232;2023-02-11T00:35:35;42.80;;;24.03;;
2972;SDS011;1496;51.404;7.232;2023-02-11T00:38:03;42.10;;;23.20;;
2972;SDS011;1496;51.404;7.232;2023-02-11T00:40:30;44.50;;;25.00;;
2972;SDS011;1496;51.404;7.232;2023-02-11T00:42:56;42.57;;;23.90;;
2972;SDS011;1496;51.404;7.232;2023-02-11T00:45:23;48.90;;;23.37;;
2972;SDS011;1496;51.404;7.232;2023-02-11T00:47:51;42.53;;;24.53;;
2972;SDS011;1496;51.404;7.232;2023-02-11T00:50:18;38.87;;;22.47;;
2972;SDS011;1496;51.404;7.232;2023-02-11T00:52:47;39.40;;;23.10;;
2972;SDS011;1496;51.404;7.232;2023-02-11T00:55:15;42.03;;;24.17;;
2972;SDS011;1496;51.404;7.232;2023-02-11T00:57:45;36.43;;;21.97;;
2972;SDS011;1496;51.404;7.232;2023-02-11T01:00:12;37.63;;;22.10;;
2972;SDS011;1496;51.404;7.232;2023-02-11T01:02:43;39.77;;;22.90;;
2972;SDS011;1496;51.404;7.232;2023-02-11T01:05:09;38.90;;;22.70;;
2972;SDS011;1496;51.404;7.232;2023-02-11T01:07:36;36.27;;;21.50;;
2972;SDS011;1496;51.404;7.232;2023-02-11T01:10:02;33.73;;;20.90;;
2972;SDS011;1496;51.404;7.232;2023-02-11T01:12:31;40.43;;;21.47;;
2972;SDS011;1496;51.404;7.232;2023-02-11T01:14:57;34.23;;;20.23;;
2972;SDS011;1496;51.404;7.232;2023-02-11T01:17:24;36.67;;;22.03;;
2972;SDS011;1496;51.404;7.232;2023-02-11T01:19:50;40.60;;;22.47;;
2972;SDS011;1496;51.404;7.232;2023-02-11T01:22:18;37.03;;;21.03;;
2972;SDS011;1496;51.404;7.232;2023-02-11T01:24:46;39.07;;;22.77;;
2972;SDS011;1496;51.404;7.232;2023-02-11T01:27:12;33.17;;;19.80;;
2972;SDS011;1496;51.404;7.232;2023-02-11T01:29:38;34.87;;;21.60;;
2972;SDS011;1496;51.404;7.232;2023-02-11T01:32:06;40.53;;;22.10;;
2972;SDS011;1496;51.404;7.232;2023-02-11T01:34:32;34.20;;;20.43;;
2972;SDS011;1496;51.404;7.232;2023-02-11T01:37:00;34.60;;;20.67;;
2972;SDS011;1496;51.404;7.232;2023-02-11T01:39:33;39.37;;;22.17;;
2972;SDS011;1496;51.404;7.232;2023-02-11T01:42:02;35.93;;;21.60;;
2972;SDS011;1496;51.404;7.232;2023-02-11T01:44:30;36.80;;;21.47;;
2972;SDS011;1496;51.404;7.232;2023-02-11T01:46:59;31.73;;;20.23;;
2972;SDS011;1496;51.404;7.232;2023-02-11T01:49:48;36.20;;;20.30;;
2972;SDS011;1496;51.404;7.232;2023-02-11T01:52:31;33.20;;;20.80;;
2972;SDS011;1496;51.404;7.232;2023-02-11T01:55:05;37.23;;;20.07;;
2972;SDS011;1496;51.404;7.232;2023-02-11T01:57:56;34.70;;;20.93;;
2972;SDS011;1496;51.404;7.232;2023-02-11T02:00:45;45.33;;;23.50;;
2972;SDS011;1496;51.404;7.232;2023-02-11T02:03:14;35.50;;;20.43;;
2972;SDS011;1496;51.404;7.232;2023-02-11T02:06:06;32.60;;;20.67;;
2972;SDS011;1496;51.404;7.232;2023-02-11T02:11:46;33.60;;;22.23;;
2972;SDS011;1496;51.404;7.232;2023-02-11T02:14:13;40.83;;;23.80;;
2972;SDS011;1496;51.404;7.232;2023-02-11T02:16:40;42.47;;;21.43;;
2972;SDS011;1496;51.404;7.232;2023-02-11T02:27:33;36.17;;;21.13;;
2972;SDS011;1496;51.404;7.232;2023-02-11T02:35:56;40.73;;;23.90;;
2972;SDS011;1496;51.404;7.232;2023-02-11T02:38:29;38.97;;;24.47;;
2972;SDS011;1496;51.404;7.232;2023-02-11T02:41:18;41.77;;;23.13;;
2972;SDS011;1496;51.404;7.232;2023-02-11T02:43:48;39.60;;;22.50;;
2972;SDS011;1496;51.404;7.232;2023-02-11T02:46:18;42.93;;;23.90;;
2972;SDS011;1496;51.404;7.232;2023-02-11T02:48:46;40.80;;;22.77;;
2972;SDS011;1496;51.404;7.232;2023-02-11T03:05:27;34.60;;;21.40;;
2972;SDS011;1496;51.404;7.232;2023-02-11T03:08:28;51.17;;;21.87;;
2972;SDS011;1496;51.404;7.232;2023-02-11T03:11:08;37.50;;;21.43;;
2972;SDS011;1496;51.404;7.232;2023-02-11T03:13:36;33.13;;;20.63;;
2972;SDS011;1496;51.404;7.232;2023-02-11T03:16:15;39.20;;;22.37;;
2972;SDS011;1496;51.404;7.232;2023-02-11T03:18:51;50.47;;;24.40;;
2972;SDS011;1496;51.404;7.232;2023-02-11T03:21:41;32.10;;;20.70;;
2972;SDS011;1496;51.404;7.232;2023-02-11T03:24:15;36.33;;;21.63;;
2972;SDS011;1496;51.404;7.232;2023-02-11T03:26:53;39.60;;;20.10;;
2972;SDS011;1496;51.404;7.232;2023-02-11T03:32:35;33.33;;;20.20;;
2972;SDS011;1496;51.404;7.232;2023-02-11T03:35:11;41.43;;;21.57;;
2972;SDS011;1496;51.404;7.232;2023-02-11T03:37:56;33.90;;;21.67;;
2972;SDS011;1496;51.404;7.232;2023-02-11T03:40:26;38.50;;;20.20;;
2972;SDS011;1496;51.404;7.232;2023-02-11T03:43:05;36.90;;;22.20;;
2972;SDS011;1496;51.404;7.232;2023-02-11T03:45:42;35.67;;;20.80;;
2972;SDS011;1496;51.404;7.232;2023-02-11T03:48:13;34.63;;;21.30;;
2972;SDS011;1496;51.404;7.232;2023-02-11T03:50:44;43.73;;;22.53;;
2972;SDS011;1496;51.404;7.232;2023-02-11T03:53:13;38.87;;;21.60;;
2972;SDS011;1496;51.404;7.232;2023-02-11T03:55:41;45.37;;;24.87;;
2972;SDS011;1496;51.404;7.232;2023-02-11T03:58:08;42.10;;;23.67;;
2972;SDS011;1496;51.404;7.232;2023-02-11T04:00:36;35.00;;;21.53;;
2972;SDS011;1496;51.404;7.232;2023-02-11T04:03:06;44.27;;;23.60;;
2972;SDS011;1496;51.404;7.232;2023-02-11T04:05:33;46.90;;;23.47;;
2972;SDS011;1496;51.404;7.232;2023-02-11T04:08:01;43.93;;;22.63;;
2972;SDS011;1496;51.404;7.232;2023-02-11T04:10:28;41.90;;;23.53;;
2972;SDS011;1496;51.404;7.232;2023-02-11T04:12:54;37.13;;;22.10;;
2972;SDS011;1496;51.404;7.232;2023-02-11T04:15:22;44.80;;;23.00;;
2972;SDS011;1496;51.404;7.232;2023-02-11T04:17:49;45.40;;;24.43;;
2972;SDS011;1496;51.404;7.232;2023-02-11T04:20:15;38.37;;;21.70;;
2972;SDS011;1496;51.404;7.232;2023-02-11T04:22:41;41.00;;;24.27;;
2972;SDS011;1496;51.404;7.232;2023-02-11T04:25:08;43.20;;;23.00;;
2972;SDS011;1496;51.404;7.232;2023-02-11T04:27:35;40.67;;;22.87;;
2972;SDS011;1496;51.404;7.232;2023-02-11T04:30:03;49.23;;;23.00;;
2972;SDS011;1496;51.404;7.232;2023-02-11T04:32:30;41.30;;;23.50;;
2972;SDS011;1496;51.404;7.232;2023-02-11T04:34:57;38.30;;;23.30;;
2972;SDS011;1496;51.404;7.232;2023-02-11T04:37:23;42.53;;;23.50;;
2972;SDS011;1496;51.404;7.232;2023-02-11T04:39:50;54.17;;;25.70;;
2972;SDS011;1496;51.404;7.232;2023-02-11T04:42:16;41.43;;;23.80;;
2972;SDS011;1496;51.404;7.232;2023-02-11T04:44:43;42.47;;;22.77;;
2972;SDS011;1496;51.404;7.232;2023-02-11T04:47:10;42.03;;;24.40;;
2972;SDS011;1496;51.404;7.232;2023-02-11T04:49:38;37.73;;;22.70;;
2972;SDS011;1496;51.404;7.232;2023-02-11T04:52:05;44.80;;;24.67;;
2972;SDS011;1496;51.404;7.232;2023-02-11T04:54:32;45.20;;;23.70;;
2972;SDS011;1496;51.404;7.232;2023-02-11T04:56:59;51.07;;;24.90;;
2972;SDS011;1496;51.404;7.232;2023-02-11T04:59:26;44.50;;;25.07;;
2972;SDS011;1496;51.404;7.232;2023-02-11T05:01:52;39.17;;;24.20;;
2972;SDS011;1496;51.404;7.232;2023-02-11T05:04:20;38.37;;;22.43;;
2972;SDS011;1496;51.404;7.232;2023-02-11T05:06:46;47.07;;;23.73;;
2972;SDS011;1496;51.404;7.232;2023-02-11T05:09:13;46.13;;;23.47;;
2972;SDS011;1496;51.404;7.232;2023-02-11T05:11:40;47.37;;;25.00;;
2972;SDS011;1496;51.404;7.232;2023-02-11T05:14:08;51.00;;;24.90;;
2972;SDS011;1496;51.404;7.232;2023-02-11T05:16:35;43.67;;;24.70;;
2972;SDS011;1496;51.404;7.232;2023-02-11T05:19:02;52.67;;;24.83;;
2972;SDS011;1496;51.404;7.232;2023-02-11T05:21:29;49.70;;;25.07;;
2972;SDS011;1496;51.404;7.232;2023-02-11T05:23:56;41.23;;;24.87;;
2972;SDS011;1496;51.404;7.232;2023-02-11T05:26:25;46.13;;;25.63;;
2972;SDS011;1496;51.404;7.232;2023-02-11T05:28:51;40.77;;;22.97;;
2972;SDS011;1496;51.404;7.232;2023-02-11T05:31:18;44.17;;;24.67;;
2972;SDS011;1496;51.404;7.232;2023-02-11T05:33:45;42.20;;;25.60;;
2972;SDS011;1496;51.404;7.232;2023-02-11T05:36:12;53.20;;;27.33;;
2972;SDS011;1496;51.404;7.232;2023-02-11T05:38:39;45.53;;;25.37;;
2972;SDS011;1496;51.404;7.232;2023-02-11T05:41:08;46.70;;;25.67;;
2972;SDS011;1496;51.404;7.232;2023-02-11T05:43:36;40.77;;;25.20;;
2972;SDS011;1496;51.404;7.232;2023-02-11T05:46:03;52.57;;;23.83;;
2972;SDS011;1496;51.404;7.232;2023-02-11T05:48:30;49.30;;;26.80;;
2972;SDS011;1496;51.404;7.232;2023-02-11T05:50:58;48.67;;;27.80;;
2972;SDS011;1496;51.404;7.232;2023-02-11T05:53:24;43.87;;;25.70;;
2972;SDS011;1496;51.404;7.232;2023-02-11T05:55:51;45.33;;;24.50;;
2972;SDS011;1496;51.404;7.232;2023-02-11T05:58:20;46.90;;;25.70;;
2972;SDS011;1496;51.404;7.232;2023-02-11T06:00:47;43.00;;;26.17;;
2972;SDS011;1496;51.404;7.232;2023-02-11T06:03:15;40.57;;;23.93;;
2972;SDS011;1496;51.404;7.232;2023-02-11T06:05:42;48.33;;;26.30;;
2972;SDS011;1496;51.404;7.232;2023-02-11T06:08:10;47.80;;;25.47;;
2972;SDS011;1496;51.404;7.232;2023-02-11T06:10:37;43.20;;;24.80;;
2972;SDS011;1496;51.404;7.232;2023-02-11T06:13:07;42.17;;;25.47;;
2972;SDS011;1496;51.404;7.232;2023-02-11T06:15:34;44.40;;;24.90;;
2972;SDS011;1496;51.404;7.232;2023-02-11T06:18:00;46.50;;;25.80;;
2972;SDS011;1496;51.404;7.232;2023-02-11T06:20:26;46.20;;;25.50;;
2972;SDS011;1496;51.404;7.232;2023-02-11T06:22:54;42.80;;;25.40;;
2972;SDS011;1496;51.404;7.232;2023-02-11T06:25:22;49.27;;;25.67;;
2972;SDS011;1496;51.404;7.232;2023-02-11T06:27:48;42.90;;;25.50;;
2972;SDS011;1496;51.404;7.232;2023-02-11T06:30:14;39.27;;;24.47;;
2972;SDS011;1496;51.404;7.232;2023-02-11T06:32:42;39.00;;;22.70;;
2972;SDS011;1496;51.404;7.232;2023-02-11T06:35:09;45.00;;;24.13;;
2972;SDS011;1496;51.404;7.232;2023-02-11T06:37:38;43.83;;;26.03;;
2972;SDS011;1496;51.404;7.232;2023-02-11T06:40:06;42.97;;;24.83;;
2972;SDS011;1496;51.404;7.232;2023-02-11T06:42:34;41.10;;;23.77;;
2972;SDS011;1496;51.404;7.232;2023-02-11T06:45:03;45.03;;;25.97;;
2972;SDS011;1496;51.404;7.232;2023-02-11T06:47:34;45.90;;;25.60;;
2972;SDS011;1496;51.404;7.232;2023-02-11T06:50:01;47.17;;;25.40;;
2972;SDS011;1496;51.404;7.232;2023-02-11T06:52:28;38.70;;;25.97;;
2972;SDS011;1496;51.404;7.232;2023-02-11T06:54:57;50.13;;;26.00;;
2972;SDS011;1496;51.404;7.232;2023-02-11T06:57:23;46.03;;;24.80;;
2972;SDS011;1496;51.404;7.232;2023-02-11T06:59:50;49.70;;;25.93;;
2972;SDS011;1496;51.404;7.232;2023-02-11T07:02:16;48.27;;;25.00;;
2972;SDS011;1496;51.404;7.232;2023-02-11T07:04:43;46.60;;;26.47;;
2972;SDS011;1496;51.404;7.232;2023-02-11T07:07:11;52.93;;;27.30;;
2972;SDS011;1496;51.404;7.232;2023-02-11T07:09:39;57.13;;;26.93;;
2972;SDS011;1496;51.404;7.232;2023-02-11T07:12:06;54.57;;;26.57;;
2972;SDS011;1496;51.404;7.232;2023-02-11T07:14:35;46.70;;;25.77;;
2972;SDS011;1496;51.404;7.232;2023-02-11T07:17:02;62.57;;;29.60;;
2972;SDS011;1496;51.404;7.232;2023-02-11T07:19:29;63.70;;;29.63;;
2972;SDS011;1496;51.404;7.232;2023-02-11T07:21:56;58.10;;;28.77;;
2972;SDS011;1496;51.404;7.232;2023-02-11T07:24:23;58.40;;;28.03;;
2972;SDS011;1496;51.404;7.232;2023-02-11T07:26:51;60.43;;;29.73;;
2972;SDS011;1496;51.404;7.232;2023-02-11T07:29:18;64.83;;;29.50;;
2972;SDS011;1496;51.404;7.232;2023-02-11T07:31:44;70.23;;;30.17;;
2972;SDS011;1496;51.404;7.232;2023-02-11T07:34:11;73.17;;;32.50;;
2972;SDS011;1496;51.404;7.232;2023-02-11T07:36:39;61.13;;;29.37;;
2972;SDS011;1496;51.404;7.232;2023-02-11T07:39:08;57.30;;;29.87;;
2972;SDS011;1496;51.404;7.232;2023-02-11T07:41:35;70.40;;;30.20;;
2972;SDS011;1496;51.404;7.232;2023-02-11T07:44:03;66.97;;;30.40;;
2972;SDS011;1496;51.404;7.232;2023-02-11T07:46:30;63.83;;;31.07;;
2972;SDS011;1496;51.404;7.232;2023-02-11T07:48:58;73.97;;;28.87;;
2972;SDS011;1496;51.404;7.232;2023-02-11T07:51:26;82.50;;;31.90;;
2972;SDS011;1496;51.404;7.232;2023-02-11T07:53:55;73.27;;;32.10;;
2972;SDS011;1496;51.404;7.232;2023-02-11T07:56:23;63.33;;;30.70;;
2972;SDS011;1496;51.404;7.232;2023-02-11T07:58:51;67.50;;;29.17;;
2972;SDS011;1496;51.404;7.232;2023-02-11T08:01:19;62.10;;;29.00;;
2972;SDS011;1496;51.404;7.232;2023-02-11T08:03:49;74.43;;;31.40;;
2972;SDS011;1496;51.404;7.232;2023-02-11T08:06:17;65.07;;;29.33;;
2972;SDS011;1496;51.404;7.232;2023-02-11T08:08:47;78.43;;;32.20;;
2972;SDS011;1496;51.404;7.232;2023-02-11T08:11:16;70.63;;;30.63;;
2972;SDS011;1496;51.404;7.232;2023-02-11T08:13:48;74.70;;;32.33;;
2972;SDS011;1496;51.404;7.232;2023-02-11T08:16:20;81.57;;;32.27;;
2972;SDS011;1496;51.404;7.232;2023-02-11T08:18:50;72.83;;;31.60;;
2972;SDS011;1496;51.404;7.232;2023-02-11T08:21:18;73.03;;;31.70;;
2972;SDS011;1496;51.404;7.232;2023-02-11T08:23:46;80.73;;;32.43;;
2972;SDS011;1496;51.404;7.232;2023-02-11T08:26:15;87.93;;;35.83;;
2972;SDS011;1496;51.404;7.232;2023-02-11T08:28:44;75.63;;;31.67;;
2972;SDS011;1496;51.404;7.232;2023-02-11T08:31:13;90.50;;;36.23;;
2972;SDS011;1496;51.404;7.232;2023-02-11T08:33:43;77.13;;;30.77;;
2972;SDS011;1496;51.404;7.232;2023-02-11T08:36:14;70.40;;;32.80;;
2972;SDS011;1496;51.404;7.232;2023-02-11T08:38:43;82.37;;;33.70;;
2972;SDS011;1496;51.404;7.232;2023-02-11T08:41:10;71.63;;;32.80;;
2972;SDS011;1496;51.404;7.232;2023-02-11T08:43:41;72.43;;;31.60;;
2972;SDS011;1496;51.404;7.232;2023-02-11T08:46:13;70.00;;;31.77;;
2972;SDS011;1496;51.404;7.232;2023-02-11T08:48:43;82.73;;;33.10;;
2972;SDS011;1496;51.404;7.232;2023-02-11T08:51:19;72.30;;;32.67;;
2972;SDS011;1496;51.404;7.232;2023-02-11T08:53:58;76.43;;;34.27;;
2972;SDS011;1496;51.404;7.232;2023-02-11T08:56:25;64.13;;;30.40;;
2972;SDS011;1496;51.404;7.232;2023-02-11T08:58:53;86.10;;;31.77;;
2972;SDS011;1496;51.404;7.232;2023-02-11T09:01:21;73.07;;;30.50;;
2972;SDS011;1496;51.404;7.232;2023-02-11T09:03:49;79.53;;;31.37;;
2972;SDS011;1496;51.404;7.232;2023-02-11T09:06:16;86.00;;;31.23;;
2972;SDS011;1496;51.404;7.232;2023-02-11T09:08:44;71.17;;;32.57;;
2972;SDS011;1496;51.404;7.232;2023-02-11T09:11:15;83.73;;;35.37;;
2972;SDS011;1496;51.404;7.232;2023-02-11T09:13:42;73.27;;;32.27;;
2972;SDS011;1496;51.404;7.232;2023-02-11T09:16:17;84.17;;;34.43;;
2972;SDS011;1496;51.404;7.232;2023-02-11T09:18:46;71.73;;;33.57;;
2972;SDS011;1496;51.404;7.232;2023-02-11T09:21:12;78.60;;;33.50;;
2972;SDS011;1496;51.404;7.232;2023-02-11T09:23:40;86.37;;;33.67;;
2972;SDS011;1496;51.404;7.232;2023-02-11T09:26:11;91.93;;;36.10;;
2972;SDS011;1496;51.404;7.232;2023-02-11T09:28:43;84.97;;;32.37;;
2972;SDS011;1496;51.404;7.232;2023-02-11T09:31:11;72.30;;;32.20;;
2972;SDS011;1496;51.404;7.232;2023-02-11T09:33:44;87.17;;;35.47;;
2972;SDS011;1496;51.404;7.232;2023-02-11T09:36:18;84.43;;;35.67;;
2972;SDS011;1496;51.404;7.232;2023-02-11T09:38:48;79.40;;;33.80;;
2972;SDS011;1496;51.404;7.232;2023-02-11T09:44:24;70.10;;;32.53;;
2972;SDS011;1496;51.404;7.232;2023-02-11T09:46:54;85.60;;;35.27;;
2972;SDS011;1496;51.404;7.232;2023-02-11T09:49:46;86.10;;;32.60;;
2972;SDS011;1496;51.404;7.232;2023-02-11T09:52:17;89.17;;;34.43;;
2972;SDS011;1496;51.404;7.232;2023-02-11T09:55:25;95.03;;;34.63;;
2972;SDS011;1496;51.404;7.232;2023-02-11T09:57:54;75.10;;;30.43;;
2972;SDS011;1496;51.404;7.232;2023-02-11T10:01:12;75.53;;;31.00;;
2972;SDS011;1496;51.404;7.232;2023-02-11T10:11:39;67.90;;;30.47;;
2972;SDS011;1496;51.404;7.232;2023-02-11T10:17:24;74.80;;;33.03;;
2972;SDS011;1496;51.404;7.232;2023-02-11T10:27:54;84.67;;;36.57;;
2972;SDS011;1496;51.404;7.232;2023-02-11T10:35:27;85.83;;;34.07;;
2972;SDS011;1496;51.404;7.232;2023-02-11T10:37:53;71.40;;;30.03;;
2972;SDS011;1496;51.404;7.232;2023-02-11T10:40:25;80.50;;;33.30;;
2972;SDS011;1496;51.404;7.232;2023-02-11T10:42:55;73.30;;;33.57;;
2972;SDS011;1496;51.404;7.232;2023-02-11T10:45:32;84.53;;;33.07;;
2972;SDS011;1496;51.404;7.232;2023-02-11T10:54:32;82.77;;;32.90;;
2972;SDS011;1496;51.404;7.232;2023-02-11T10:56:47;82.73;;;33.07;;
2972;SDS011;1496;51.404;7.232;2023-02-11T10:59:33;81.63;;;33.00;;
2972;SDS011;1496;51.404;7.232;2023-02-11T11:02:16;81.27;;;35.20;;
2972;SDS011;1496;51.404;7.232;2023-02-11T11:04:50;78.17;;;34.73;;
2972;SDS011;1496;51.404;7.232;2023-02-11T11:07:25;71.40;;;31.90;;
2972;SDS011;1496;51.404;7.232;2023-02-11T11:12:52;66.37;;;32.10;;
2972;SDS011;1496;51.404;7.232;2023-02-11T11:15:20;78.90;;;33.23;;
2972;SDS011;1496;51.404;7.232;2023-02-11T11:17:49;78.03;;;32.30;;
2972;SDS011;1496;51.404;7.232;2023-02-11T11:20:34;73.77;;;33.77;;
2972;SDS011;1496;51.404;7.232;2023-02-11T11:25:41;70.97;;;34.33;;
2972;SDS011;1496;51.404;7.232;2023-02-11T11:28:22;87.50;;;33.90;;
2972;SDS011;1496;51.404;7.232;2023-02-11T11:30:53;68.93;;;30.97;;
2972;SDS011;1496;51.404;7.232;2023-02-11T11:33:42;78.50;;;34.50;;
2972;SDS011;1496;51.404;7.232;2023-02-11T11:36:12;69.77;;;32.70;;
2972;SDS011;1496;51.404;7.232;2023-02-11T11:38:54;79.63;;;32.10;;
2972;SDS011;1496;51.404;7.232;2023-02-11T11:41:29;75.50;;;33.47;;
2972;SDS011;1496;51.404;7.232;2023-02-11T11:44:31;67.20;;;31.83;;
2972;SDS011;1496;51.404;7.232;2023-02-11T11:47:31;67.60;;;32.40;;
2972;SDS011;1496;51.404;7.232;2023-02-11T11:52:37;71.30;;;34.47;;
2972;SDS011;1496;51.404;7.232;2023-02-11T11:55:34;73.97;;;31.17;;
2972;SDS011;1496;51.404;7.232;2023-02-11T11:58:16;91.07;;;34.63;;
2972;SDS011;1496;51.404;7.232;2023-02-11T12:00:54;82.10;;;34.73;;
2972;SDS011;1496;51.404;7.232;2023-02-11T12:03:33;72.73;;;33.07;;
2972;SDS011;1496;51.404;7.232;2023-02-11T12:06:20;82.30;;;36.43;;
2972;SDS011;1496;51.404;7.232;2023-02-11T12:11:58;80.07;;;33.47;;
2972;SDS011;1496;51.404;7.232;2023-02-11T12:23:04;82.27;;;36.40;;
2972;SDS011;1496;51.404;7.232;2023-02-11T12:25:42;87.63;;;35.93;;
2972;SDS011;1496;51.404;7.232;2023-02-11T12:28:28;92.83;;;38.23;;
2972;SDS011;1496;51.404;7.232;2023-02-11T12:31:30;78.33;;;37.80;;
2972;SDS011;1496;51.404;7.232;2023-02-11T12:34:22;105.07;;;37.67;;
2972;SDS011;1496;51.404;7.232;2023-02-11T12:37:05;86.77;;;39.20;;
2972;SDS011;1496;51.404;7.232;2023-02-11T12:39:44;89.97;;;37.40;;
2972;SDS011;1496;51.404;7.232;2023-02-11T12:54:10;88.33;;;40.17;;
2972;SDS011;1496;51.404;7.232;2023-02-11T12:59:27;84.67;;;40.70;;
2972;SDS011;1496;51.404;7.232;2023-02-11T13:02:38;83.73;;;36.50;;
2972;SDS011;1496;51.404;7.232;2023-02-11T13:08:16;83.57;;;38.80;;
2972;SDS011;1496;51.404;7.232;2023-02-11T13:10:56;86.87;;;40.07;;
2972;SDS011;1496;51.404;7.232;2023-02-11T13:13:34;93.73;;;37.57;;
2972;SDS011;1496;51.404;7.232;2023-02-11T13:16:18;80.93;;;40.60;;
2972;SDS011;1496;51.404;7.232;2023-02-11T13:25:14;102.43;;;39.37;;
2972;SDS011;1496;51.404;7.232;2023-02-11T13:30:31;84.13;;;41.30;;
2972;SDS011;1496;51.404;7.232;2023-02-11T13:33:02;88.97;;;40.60;;
2972;SDS011;1496;51.404;7.232;2023-02-11T13:35:32;90.40;;;40.07;;
2972;SDS011;1496;51.404;7.232;2023-02-11T13:41:03;85.50;;;40.87;;
2972;SDS011;1496;51.404;7.232;2023-02-11T13:43:33;97.33;;;40.60;;
2972;SDS011;1496;51.404;7.232;2023-02-11T13:46:07;102.63;;;41.53;;
2972;SDS011;1496;51.404;7.232;2023-02-11T13:48:37;94.93;;;39.70;;
2972;SDS011;1496;51.404;7.232;2023-02-11T13:51:32;95.53;;;41.90;;
2972;SDS011;1496;51.404;7.232;2023-02-11T13:54:03;97.67;;;42.43;;
2972;SDS011;1496;51.404;7.232;2023-02-11T13:56:38;106.10;;;39.40;;
2972;SDS011;1496;51.404;7.232;2023-02-11T14:02:08;95.87;;;42.10;;
2972;SDS011;1496;51.404;7.232;2023-02-11T14:05:19;84.87;;;38.90;;
2972;SDS011;1496;51.404;7.232;2023-02-11T14:08:13;91.10;;;40.37;;
2972;SDS011;1496;51.404;7.232;2023-02-11T14:11:40;91.43;;;39.67;;
2972;SDS011;1496;51.404;7.232;2023-02-11T14:22:12;106.97;;;41.97;;
2972;SDS011;1496;51.404;7.232;2023-02-11T14:24:50;107.27;;;40.43;;
2972;SDS011;1496;51.404;7.232;2023-02-11T14:27:28;92.10;;;38.77;;
2972;SDS011;1496;51.404;7.232;2023-02-11T14:35:26;86.23;;;39.67;;
2972;SDS011;1496;51.404;7.232;2023-02-11T14:38:06;86.40;;;39.00;;
2972;SDS011;1496;51.404;7.232;2023-02-11T14:43:35;89.63;;;38.87;;
2972;SDS011;1496;51.404;7.232;2023-02-11T14:46:14;95.77;;;39.83;;
2972;SDS011;1496;51.404;7.232;2023-02-11T14:48:45;95.93;;;41.50;;
2972;SDS011;1496;51.404;7.232;2023-02-11T14:51:16;84.47;;;38.33;;
2972;SDS011;1496;51.404;7.232;2023-02-11T14:53:49;90.93;;;38.33;;
2972;SDS011;1496;51.404;7.232;2023-02-11T14:56:22;94.20;;;40.80;;
2972;SDS011;1496;51.404;7.232;2023-02-11T14:58:56;84.63;;;39.23;;
2972;SDS011;1496;51.404;7.232;2023-02-11T15:04:01;86.33;;;37.30;;
2972;SDS011;1496;51.404;7.232;2023-02-11T15:06:32;94.67;;;39.63;;
2972;SDS011;1496;51.404;7.232;2023-02-11T15:09:30;82.77;;;36.83;;
2972;SDS011;1496;51.404;7.232;2023-02-11T15:12:16;75.87;;;36.63;;
2972;SDS011;1496;51.404;7.232;2023-02-11T15:14:52;82.37;;;37.60;;
2972;SDS011;1496;51.404;7.232;2023-02-11T15:17:22;82.30;;;38.53;;
2972;SDS011;1496;51.404;7.232;2023-02-11T15:19:53;71.53;;;35.87;;
2972;SDS011;1496;51.404;7.232;2023-02-11T15:22:25;74.33;;;36.17;;
2972;SDS011;1496;51.404;7.232;2023-02-11T15:25:27;72.07;;;35.53;;
2972;SDS011;1496;51.404;7.232;2023-02-11T15:27:51;66.50;;;31.60;;
2972;SDS011;1496;51.404;7.232;2023-02-11T15:30:25;75.67;;;34.30;;
2972;SDS011;1496;51.404;7.232;2023-02-11T15:33:02;71.80;;;34.70;;
2972;SDS011;1496;51.404;7.232;2023-02-11T15:35:33;64.37;;;34.07;;
2972;SDS011;1496;51.404;7.232;2023-02-11T15:38:02;60.37;;;32.90;;
2972;SDS011;1496;51.404;7.232;2023-02-11T15:40:30;70.50;;;31.83;;
2972;SDS011;1496;51.404;7.232;2023-02-11T15:50:47;69.63;;;30.93;;
2972;SDS011;1496;51.404;7.232;2023-02-11T15:53:22;65.73;;;33.00;;
2972;SDS011;1496;51.404;7.232;2023-02-11T15:56:19;67.10;;;32.03;;
2972;SDS011;1496;51.404;7.232;2023-02-11T15:58:50;61.23;;;31.60;;
2972;SDS011;1496;51.404;7.232;2023-02-11T16:01:18;64.47;;;33.57;;
2972;SDS011;1496;51.404;7.232;2023-02-11T16:03:55;62.63;;;31.90;;
2972;SDS011;1496;51.404;7.232;2023-02-11T16:06:23;68.50;;;31.90;;
2972;SDS011;1496;51.404;7.232;2023-02-11T16:08:58;57.97;;;30.97;;
2972;SDS011;1496;51.404;7.232;2023-02-11T16:11:31;72.20;;;33.90;;
2972;SDS011;1496;51.404;7.232;2023-02-11T16:14:01;61.40;;;32.00;;
2972;SDS011;1496;51.404;7.232;2023-02-11T16:16:46;79.90;;;32.77;;
2972;SDS011;1496;51.404;7.232;2023-02-11T16:19:19;68.20;;;32.60;;
2972;SDS011;1496;51.404;7.232;2023-02-11T16:21:49;66.40;;;32.10;;
2972;SDS011;1496;51.404;7.232;2023-02-11T16:24:18;65.80;;;30.87;;
2972;SDS011;1496;51.404;7.232;2023-02-11T16:26:48;74.93;;;33.07;;
2972;SDS011;1496;51.404;7.232;2023-02-11T16:29:21;68.50;;;34.30;;
2972;SDS011;1496;51.404;7.232;2023-02-11T16:32:03;62.23;;;32.80;;
2972;SDS011;1496;51.404;7.232;2023-02-11T16:34:48;65.97;;;33.77;;
2972;SDS011;1496;51.404;7.232;2023-02-11T16:37:14;80.30;;;36.53;;
2972;SDS011;1496;51.404;7.232;2023-02-11T16:39:42;69.50;;;33.33;;
2972;SDS011;1496;51.404;7.232;2023-02-11T16:42:11;73.37;;;35.30;;
2972;SDS011;1496;51.404;7.232;2023-02-11T16:44:39;65.83;;;34.47;;
2972;SDS011;1496;51.404;7.232;2023-02-11T16:47:07;72.83;;;34.30;;
2972;SDS011;1496;51.404;7.232;2023-02-11T16:49:50;63.20;;;32.30;;
2972;SDS011;1496;51.404;7.232;2023-02-11T16:52:18;65.27;;;33.20;;
2972;SDS011;1496;51.404;7.232;2023-02-11T16:54:47;75.03;;;32.50;;
2972;SDS011;1496;51.404;7.232;2023-02-11T16:57:16;79.50;;;35.60;;
2972;SDS011;1496;51.404;7.232;2023-02-11T16:59:45;72.53;;;35.00;;
2972;SDS011;1496;51.404;7.232;2023-02-11T17:02:14;69.10;;;33.40;;
2972;SDS011;1496;51.404;7.232;2023-02-11T17:04:54;67.77;;;33.50;;
2972;SDS011;1496;51.404;7.232;2023-02-11T17:07:24;69.77;;;33.77;;
2972;SDS011;1496;51.404;7.232;2023-02-11T17:09:50;67.47;;;32.23;;
2972;SDS011;1496;51.404;7.232;2023-02-11T17:12:18;73.60;;;34.90;;
2972;SDS011;1496;51.404;7.232;2023-02-11T17:14:46;70.97;;;32.70;;
2972;SDS011;1496;51.404;7.232;2023-02-11T17:17:12;78.40;;;34.77;;
2972;SDS011;1496;51.404;7.232;2023-02-11T17:19:40;81.27;;;34.80;;
2972;SDS011;1496;51.404;7.232;2023-02-11T17:22:09;70.23;;;32.67;;
2972;SDS011;1496;51.404;7.232;2023-02-11T17:24:36;64.10;;;34.27;;
2972;SDS011;1496;51.404;7.232;2023-02-11T17:27:03;75.37;;;35.87;;
2972;SDS011;1496;51.404;7.232;2023-02-11T17:29:32;77.03;;;35.27;;
2972;SDS011;1496;51.404;7.232;2023-02-11T17:31:58;79.10;;;33.23;;
2972;SDS011;1496;51.404;7.232;2023-02-11T17:34:26;65.37;;;33.33;;
2972;SDS011;1496;51.404;7.232;2023-02-11T17:36:54;74.77;;;34.43;;
2972;SDS011;1496;51.404;7.232;2023-02-11T17:39:23;77.80;;;35.97;;
2972;SDS011;1496;51.404;7.232;2023-02-11T17:41:50;77.17;;;33.10;;
2972;SDS011;1496;51.404;7.232;2023-02-11T17:44:17;78.13;;;35.30;;